Portada
METAR-TAF:

METAR-TAF

Aeroports :

Newton Municipal Airport

Newton, Iowa, Estats Units d'Amèrica

latitud: 41-41N, longitud: 093-01W, altitud: 290 m

Observació

L'informe es va fer fa 17 minuts, a les 17:15 UTC
Vent 8 kt del Nord-Est
Temperatura 16°C
Humitat 88%
Pressió 1021 hPa
Visibilitat: 12.9 km
Cel cobert a una alçada de 900 ft

METAR: KTNU 201715Z AUTO 04008KT 8SM OVC009 16/14 A3014 RMK AO2

Hora: 12:32 (17:32 UTC)


TAF: manca

Observacions i pronòstics meteorològics de més de 4000 aeroports (METAR i TAF).

Les estacions disponibles són els punts grocs i vermells al mapa.

Posi el ratolí al punt desitjat per veure el nom de l'estació.

Feu clic per veure les observacions i els pronòstics meteorològics.

Per canviar el mapa: feu clic els botons verds amb una creu de color negre per apropar; al botó verd amb un guió per allunyar la imatge; o en les fletxes verdes per a mapes adjacents.


METAR-TAF: